sensor_id;sensor_type;location;lat;lon;timestamp;P1;durP1;ratioP1;P2;durP2;ratioP2
46158;SDS011;31888;44.512;26.104;2022-12-29T00:00:45;45.67;;;22.92;;
46158;SDS011;31888;44.512;26.104;2022-12-29T00:03:10;45.92;;;22.88;;
46158;SDS011;31888;44.512;26.104;2022-12-29T00:05:35;53.40;;;23.98;;
46158;SDS011;31888;44.512;26.104;2022-12-29T00:07:59;45.47;;;21.92;;
46158;SDS011;31888;44.512;26.104;2022-12-29T00:10:25;42.80;;;22.23;;
46158;SDS011;31888;44.512;26.104;2022-12-29T00:12:50;42.22;;;21.85;;
46158;SDS011;31888;44.512;26.104;2022-12-29T00:15:31;47.20;;;23.40;;
46158;SDS011;31888;44.512;26.104;2022-12-29T00:18:07;54.60;;;24.17;;
46158;SDS011;31888;44.512;26.104;2022-12-29T00:20:32;55.72;;;22.40;;
46158;SDS011;31888;44.512;26.104;2022-12-29T00:23:15;48.05;;;20.88;;
46158;SDS011;31888;44.512;26.104;2022-12-29T00:26:02;43.58;;;21.58;;
46158;SDS011;31888;44.512;26.104;2022-12-29T00:28:44;62.72;;;25.35;;
46158;SDS011;31888;44.512;26.104;2022-12-29T00:31:26;48.47;;;24.48;;
46158;SDS011;31888;44.512;26.104;2022-12-29T00:34:09;55.08;;;24.98;;
46158;SDS011;31888;44.512;26.104;2022-12-29T00:36:52;48.47;;;21.83;;
46158;SDS011;31888;44.512;26.104;2022-12-29T00:39:17;44.78;;;23.00;;
46158;SDS011;31888;44.512;26.104;2022-12-29T00:42:03;42.42;;;21.58;;
46158;SDS011;31888;44.512;26.104;2022-12-29T00:44:58;45.95;;;22.23;;
46158;SDS011;31888;44.512;26.104;2022-12-29T00:47:25;53.05;;;22.67;;
46158;SDS011;31888;44.512;26.104;2022-12-29T00:49:50;48.85;;;22.60;;
46158;SDS011;31888;44.512;26.104;2022-12-29T00:52:13;45.45;;;21.00;;
46158;SDS011;31888;44.512;26.104;2022-12-29T00:54:40;51.97;;;24.90;;
46158;SDS011;31888;44.512;26.104;2022-12-29T00:57:09;56.53;;;27.70;;
46158;SDS011;31888;44.512;26.104;2022-12-29T00:59:34;68.88;;;32.58;;
46158;SDS011;31888;44.512;26.104;2022-12-29T01:01:59;62.92;;;29.50;;
46158;SDS011;31888;44.512;26.104;2022-12-29T01:04:24;68.25;;;31.08;;
46158;SDS011;31888;44.512;26.104;2022-12-29T01:06:49;67.13;;;33.47;;
46158;SDS011;31888;44.512;26.104;2022-12-29T01:09:15;60.25;;;29.40;;
46158;SDS011;31888;44.512;26.104;2022-12-29T01:11:57;61.75;;;29.80;;
46158;SDS011;31888;44.512;26.104;2022-12-29T01:14:23;69.63;;;32.15;;
46158;SDS011;31888;44.512;26.104;2022-12-29T01:16:49;65.25;;;30.73;;
46158;SDS011;31888;44.512;26.104;2022-12-29T01:19:14;67.35;;;29.70;;
46158;SDS011;31888;44.512;26.104;2022-12-29T01:21:39;66.47;;;31.77;;
46158;SDS011;31888;44.512;26.104;2022-12-29T01:24:04;70.10;;;32.78;;
46158;SDS011;31888;44.512;26.104;2022-12-29T01:26:29;78.07;;;34.20;;
46158;SDS011;31888;44.512;26.104;2022-12-29T01:28:54;72.13;;;33.95;;
46158;SDS011;31888;44.512;26.104;2022-12-29T01:31:19;78.28;;;34.45;;
46158;SDS011;31888;44.512;26.104;2022-12-29T01:33:44;84.40;;;35.58;;
46158;SDS011;31888;44.512;26.104;2022-12-29T01:36:09;66.05;;;32.17;;
46158;SDS011;31888;44.512;26.104;2022-12-29T01:38:36;59.53;;;30.83;;
46158;SDS011;31888;44.512;26.104;2022-12-29T01:41:01;69.45;;;32.88;;
46158;SDS011;31888;44.512;26.104;2022-12-29T01:43:37;75.80;;;34.13;;
46158;SDS011;31888;44.512;26.104;2022-12-29T01:46:04;72.38;;;32.95;;
46158;SDS011;31888;44.512;26.104;2022-12-29T01:48:33;71.35;;;33.92;;
46158;SDS011;31888;44.512;26.104;2022-12-29T01:50:57;78.88;;;35.35;;
46158;SDS011;31888;44.512;26.104;2022-12-29T01:53:23;73.70;;;33.00;;
46158;SDS011;31888;44.512;26.104;2022-12-29T01:55:52;73.38;;;34.38;;
46158;SDS011;31888;44.512;26.104;2022-12-29T01:58:20;73.18;;;33.28;;
46158;SDS011;31888;44.512;26.104;2022-12-29T02:00:48;75.13;;;33.53;;
46158;SDS011;31888;44.512;26.104;2022-12-29T02:03:12;79.43;;;34.97;;
46158;SDS011;31888;44.512;26.104;2022-12-29T02:05:42;73.10;;;33.15;;
46158;SDS011;31888;44.512;26.104;2022-12-29T02:08:11;62.33;;;30.63;;
46158;SDS011;31888;44.512;26.104;2022-12-29T02:10:36;75.25;;;31.63;;
46158;SDS011;31888;44.512;26.104;2022-12-29T02:13:02;70.72;;;33.35;;
46158;SDS011;31888;44.512;26.104;2022-12-29T02:15:50;73.70;;;32.15;;
46158;SDS011;31888;44.512;26.104;2022-12-29T02:18:23;73.40;;;33.28;;
46158;SDS011;31888;44.512;26.104;2022-12-29T02:24:24;73.55;;;34.78;;
46158;SDS011;31888;44.512;26.104;2022-12-29T02:27:31;72.65;;;33.75;;
46158;SDS011;31888;44.512;26.104;2022-12-29T02:30:12;72.97;;;34.53;;
46158;SDS011;31888;44.512;26.104;2022-12-29T02:32:50;79.85;;;35.58;;
46158;SDS011;31888;44.512;26.104;2022-12-29T02:35:25;75.25;;;36.15;;
46158;SDS011;31888;44.512;26.104;2022-12-29T02:37:57;71.57;;;35.75;;
46158;SDS011;31888;44.512;26.104;2022-12-29T02:40:29;71.88;;;35.83;;
46158;SDS011;31888;44.512;26.104;2022-12-29T02:43:01;77.45;;;36.53;;
46158;SDS011;31888;44.512;26.104;2022-12-29T02:45:34;77.22;;;37.47;;
46158;SDS011;31888;44.512;26.104;2022-12-29T02:48:07;80.25;;;34.92;;
46158;SDS011;31888;44.512;26.104;2022-12-29T02:50:41;87.05;;;39.10;;
46158;SDS011;31888;44.512;26.104;2022-12-29T02:53:13;76.75;;;36.65;;
46158;SDS011;31888;44.512;26.104;2022-12-29T02:55:39;78.15;;;36.58;;
46158;SDS011;31888;44.512;26.104;2022-12-29T02:58:15;79.97;;;38.05;;
46158;SDS011;31888;44.512;26.104;2022-12-29T03:00:45;77.72;;;37.33;;
46158;SDS011;31888;44.512;26.104;2022-12-29T03:03:20;83.75;;;37.63;;
46158;SDS011;31888;44.512;26.104;2022-12-29T03:06:04;85.30;;;39.63;;
46158;SDS011;31888;44.512;26.104;2022-12-29T03:08:43;83.68;;;36.22;;
46158;SDS011;31888;44.512;26.104;2022-12-29T03:11:16;80.75;;;37.35;;
46158;SDS011;31888;44.512;26.104;2022-12-29T03:13:59;74.75;;;35.47;;
46158;SDS011;31888;44.512;26.104;2022-12-29T03:16:48;77.18;;;35.58;;
46158;SDS011;31888;44.512;26.104;2022-12-29T03:19:19;79.28;;;36.08;;
46158;SDS011;31888;44.512;26.104;2022-12-29T03:21:47;75.75;;;36.30;;
46158;SDS011;31888;44.512;26.104;2022-12-29T03:24:38;84.05;;;35.90;;
46158;SDS011;31888;44.512;26.104;2022-12-29T03:27:06;76.55;;;35.63;;
46158;SDS011;31888;44.512;26.104;2022-12-29T03:29:36;81.78;;;36.38;;
46158;SDS011;31888;44.512;26.104;2022-12-29T03:32:07;76.93;;;37.63;;
46158;SDS011;31888;44.512;26.104;2022-12-29T03:34:36;74.95;;;35.83;;
46158;SDS011;31888;44.512;26.104;2022-12-29T03:37:02;68.70;;;34.70;;
46158;SDS011;31888;44.512;26.104;2022-12-29T03:39:33;84.82;;;37.75;;
46158;SDS011;31888;44.512;26.104;2022-12-29T03:41:59;72.00;;;34.08;;
46158;SDS011;31888;44.512;26.104;2022-12-29T03:44:31;71.70;;;34.83;;
46158;SDS011;31888;44.512;26.104;2022-12-29T03:46:57;74.05;;;34.58;;
46158;SDS011;31888;44.512;26.104;2022-12-29T03:49:23;75.50;;;35.70;;
46158;SDS011;31888;44.512;26.104;2022-12-29T03:51:47;71.07;;;34.47;;
46158;SDS011;31888;44.512;26.104;2022-12-29T03:54:14;74.20;;;34.10;;
46158;SDS011;31888;44.512;26.104;2022-12-29T03:56:39;75.78;;;34.35;;
46158;SDS011;31888;44.512;26.104;2022-12-29T03:59:03;82.25;;;36.65;;
46158;SDS011;31888;44.512;26.104;2022-12-29T04:01:33;79.13;;;37.03;;
46158;SDS011;31888;44.512;26.104;2022-12-29T04:04:02;82.55;;;36.88;;
46158;SDS011;31888;44.512;26.104;2022-12-29T04:06:28;77.03;;;37.30;;
46158;SDS011;31888;44.512;26.104;2022-12-29T04:08:57;77.07;;;36.42;;
46158;SDS011;31888;44.512;26.104;2022-12-29T04:11:22;75.18;;;35.28;;
46158;SDS011;31888;44.512;26.104;2022-12-29T04:13:55;78.35;;;36.80;;
46158;SDS011;31888;44.512;26.104;2022-12-29T04:16:20;74.57;;;36.90;;
46158;SDS011;31888;44.512;26.104;2022-12-29T04:18:45;77.90;;;35.40;;
46158;SDS011;31888;44.512;26.104;2022-12-29T04:21:11;78.90;;;34.47;;
46158;SDS011;31888;44.512;26.104;2022-12-29T04:23:39;74.20;;;35.63;;
46158;SDS011;31888;44.512;26.104;2022-12-29T04:26:05;72.60;;;35.85;;
46158;SDS011;31888;44.512;26.104;2022-12-29T04:28:54;70.03;;;33.80;;
46158;SDS011;31888;44.512;26.104;2022-12-29T04:31:42;75.30;;;33.88;;
46158;SDS011;31888;44.512;26.104;2022-12-29T04:34:07;78.07;;;35.15;;
46158;SDS011;31888;44.512;26.104;2022-12-29T04:36:31;76.85;;;36.28;;
46158;SDS011;31888;44.512;26.104;2022-12-29T04:38:57;73.82;;;34.28;;
46158;SDS011;31888;44.512;26.104;2022-12-29T04:41:22;70.47;;;34.13;;
46158;SDS011;31888;44.512;26.104;2022-12-29T04:43:48;74.22;;;34.90;;
46158;SDS011;31888;44.512;26.104;2022-12-29T04:46:32;68.63;;;33.97;;
46158;SDS011;31888;44.512;26.104;2022-12-29T04:49:03;74.95;;;34.55;;
46158;SDS011;31888;44.512;26.104;2022-12-29T04:52:03;74.53;;;35.40;;
46158;SDS011;31888;44.512;26.104;2022-12-29T04:54:30;76.43;;;35.20;;
46158;SDS011;31888;44.512;26.104;2022-12-29T04:57:07;72.60;;;34.47;;
46158;SDS011;31888;44.512;26.104;2022-12-29T04:59:33;75.57;;;35.38;;
46158;SDS011;31888;44.512;26.104;2022-12-29T05:01:59;86.70;;;37.63;;
46158;SDS011;31888;44.512;26.104;2022-12-29T05:04:24;80.28;;;37.00;;
46158;SDS011;31888;44.512;26.104;2022-12-29T05:06:48;84.43;;;39.13;;
46158;SDS011;31888;44.512;26.104;2022-12-29T05:09:13;80.15;;;37.63;;
46158;SDS011;31888;44.512;26.104;2022-12-29T05:11:42;80.35;;;37.13;;
46158;SDS011;31888;44.512;26.104;2022-12-29T05:14:06;80.43;;;38.50;;
46158;SDS011;31888;44.512;26.104;2022-12-29T05:16:32;79.05;;;36.60;;
46158;SDS011;31888;44.512;26.104;2022-12-29T05:18:57;80.82;;;38.78;;
46158;SDS011;31888;44.512;26.104;2022-12-29T05:21:22;94.50;;;38.13;;
46158;SDS011;31888;44.512;26.104;2022-12-29T05:23:47;74.15;;;36.65;;
46158;SDS011;31888;44.512;26.104;2022-12-29T05:26:11;73.55;;;35.03;;
46158;SDS011;31888;44.512;26.104;2022-12-29T05:29:03;72.30;;;34.97;;
46158;SDS011;31888;44.512;26.104;2022-12-29T05:31:29;76.32;;;35.42;;
46158;SDS011;31888;44.512;26.104;2022-12-29T05:33:55;69.60;;;34.35;;
46158;SDS011;31888;44.512;26.104;2022-12-29T05:36:21;73.03;;;33.55;;
46158;SDS011;31888;44.512;26.104;2022-12-29T05:41:15;69.32;;;32.42;;
46158;SDS011;31888;44.512;26.104;2022-12-29T05:43:58;75.05;;;33.67;;
46158;SDS011;31888;44.512;26.104;2022-12-29T05:46:47;85.22;;;35.60;;
46158;SDS011;31888;44.512;26.104;2022-12-29T05:49:39;67.72;;;33.08;;
46158;SDS011;31888;44.512;26.104;2022-12-29T05:52:13;73.80;;;33.60;;
46158;SDS011;31888;44.512;26.104;2022-12-29T05:54:39;76.90;;;32.78;;
46158;SDS011;31888;44.512;26.104;2022-12-29T05:57:07;65.82;;;30.77;;
46158;SDS011;31888;44.512;26.104;2022-12-29T05:59:33;72.10;;;31.88;;
46158;SDS011;31888;44.512;26.104;2022-12-29T06:02:00;64.53;;;33.45;;
46158;SDS011;31888;44.512;26.104;2022-12-29T06:04:26;73.93;;;34.50;;
46158;SDS011;31888;44.512;26.104;2022-12-29T06:06:52;79.05;;;32.85;;
46158;SDS011;31888;44.512;26.104;2022-12-29T06:09:26;67.95;;;32.72;;
46158;SDS011;31888;44.512;26.104;2022-12-29T06:11:51;67.45;;;34.20;;
46158;SDS011;31888;44.512;26.104;2022-12-29T06:14:16;71.68;;;33.58;;
46158;SDS011;31888;44.512;26.104;2022-12-29T06:16:40;61.75;;;32.75;;
46158;SDS011;31888;44.512;26.104;2022-12-29T06:19:09;71.03;;;33.20;;
46158;SDS011;31888;44.512;26.104;2022-12-29T06:21:35;61.85;;;33.35;;
46158;SDS011;31888;44.512;26.104;2022-12-29T06:24:00;65.18;;;33.72;;
46158;SDS011;31888;44.512;26.104;2022-12-29T06:26:24;69.30;;;33.53;;
46158;SDS011;31888;44.512;26.104;2022-12-29T06:28:49;63.20;;;33.75;;
46158;SDS011;31888;44.512;26.104;2022-12-29T06:31:13;68.90;;;35.95;;
46158;SDS011;31888;44.512;26.104;2022-12-29T06:33:38;75.78;;;36.25;;
46158;SDS011;31888;44.512;26.104;2022-12-29T06:36:04;71.03;;;37.58;;
46158;SDS011;31888;44.512;26.104;2022-12-29T06:38:30;78.90;;;39.85;;
46158;SDS011;31888;44.512;26.104;2022-12-29T06:40:55;73.03;;;38.55;;
46158;SDS011;31888;44.512;26.104;2022-12-29T06:43:38;78.03;;;38.60;;
46158;SDS011;31888;44.512;26.104;2022-12-29T06:46:14;70.95;;;37.03;;
46158;SDS011;31888;44.512;26.104;2022-12-29T06:48:39;80.32;;;40.83;;
46158;SDS011;31888;44.512;26.104;2022-12-29T06:51:06;82.65;;;38.72;;
46158;SDS011;31888;44.512;26.104;2022-12-29T06:53:30;84.63;;;40.65;;
46158;SDS011;31888;44.512;26.104;2022-12-29T06:55:55;75.57;;;37.88;;
46158;SDS011;31888;44.512;26.104;2022-12-29T06:58:19;68.93;;;38.63;;
46158;SDS011;31888;44.512;26.104;2022-12-29T07:00:44;77.38;;;39.63;;
46158;SDS011;31888;44.512;26.104;2022-12-29T07:03:08;81.75;;;39.05;;
46158;SDS011;31888;44.512;26.104;2022-12-29T07:05:33;74.72;;;37.00;;
46158;SDS011;31888;44.512;26.104;2022-12-29T07:07:59;74.68;;;38.28;;
46158;SDS011;31888;44.512;26.104;2022-12-29T07:10:24;78.78;;;38.35;;
46158;SDS011;31888;44.512;26.104;2022-12-29T07:12:48;71.03;;;37.95;;
46158;SDS011;31888;44.512;26.104;2022-12-29T07:15:13;70.50;;;37.38;;
46158;SDS011;31888;44.512;26.104;2022-12-29T07:17:37;72.07;;;38.35;;
46158;SDS011;31888;44.512;26.104;2022-12-29T07:20:02;71.88;;;36.88;;
46158;SDS011;31888;44.512;26.104;2022-12-29T07:22:27;75.30;;;37.55;;
46158;SDS011;31888;44.512;26.104;2022-12-29T07:24:53;69.43;;;38.15;;
46158;SDS011;31888;44.512;26.104;2022-12-29T07:27:17;70.20;;;36.78;;
46158;SDS011;31888;44.512;26.104;2022-12-29T07:29:42;72.65;;;35.35;;
46158;SDS011;31888;44.512;26.104;2022-12-29T07:32:06;70.60;;;36.03;;
46158;SDS011;31888;44.512;26.104;2022-12-29T07:34:31;66.80;;;34.60;;
46158;SDS011;31888;44.512;26.104;2022-12-29T07:36:56;74.32;;;35.03;;
46158;SDS011;31888;44.512;26.104;2022-12-29T07:39:20;75.10;;;34.55;;
46158;SDS011;31888;44.512;26.104;2022-12-29T07:41:46;68.35;;;33.35;;
46158;SDS011;31888;44.512;26.104;2022-12-29T07:44:15;64.32;;;33.63;;
46158;SDS011;31888;44.512;26.104;2022-12-29T07:46:48;75.68;;;33.53;;
46158;SDS011;31888;44.512;26.104;2022-12-29T07:49:19;64.63;;;31.52;;
46158;SDS011;31888;44.512;26.104;2022-12-29T07:51:43;58.25;;;28.85;;
46158;SDS011;31888;44.512;26.104;2022-12-29T07:54:08;59.60;;;29.80;;
46158;SDS011;31888;44.512;26.104;2022-12-29T07:56:34;58.83;;;30.27;;
46158;SDS011;31888;44.512;26.104;2022-12-29T07:59:00;58.63;;;29.88;;
46158;SDS011;31888;44.512;26.104;2022-12-29T08:01:24;61.72;;;30.75;;
46158;SDS011;31888;44.512;26.104;2022-12-29T08:03:50;56.35;;;29.98;;
46158;SDS011;31888;44.512;26.104;2022-12-29T08:06:19;58.95;;;28.75;;
46158;SDS011;31888;44.512;26.104;2022-12-29T08:08:45;55.72;;;27.27;;
46158;SDS011;31888;44.512;26.104;2022-12-29T08:11:09;59.13;;;27.88;;
46158;SDS011;31888;44.512;26.104;2022-12-29T08:13:34;57.88;;;29.27;;
46158;SDS011;31888;44.512;26.104;2022-12-29T08:16:00;52.55;;;26.90;;
46158;SDS011;31888;44.512;26.104;2022-12-29T08:18:25;57.05;;;28.33;;
46158;SDS011;31888;44.512;26.104;2022-12-29T08:20:50;55.58;;;25.67;;
46158;SDS011;31888;44.512;26.104;2022-12-29T08:23:17;54.67;;;25.27;;
46158;SDS011;31888;44.512;26.104;2022-12-29T08:25:42;48.55;;;23.77;;
46158;SDS011;31888;44.512;26.104;2022-12-29T08:28:07;45.25;;;24.48;;
46158;SDS011;31888;44.512;26.104;2022-12-29T08:30:33;49.65;;;25.25;;
46158;SDS011;31888;44.512;26.104;2022-12-29T08:33:01;43.38;;;24.38;;
46158;SDS011;31888;44.512;26.104;2022-12-29T08:35:26;46.45;;;24.58;;
46158;SDS011;31888;44.512;26.104;2022-12-29T08:37:50;42.88;;;21.38;;
46158;SDS011;31888;44.512;26.104;2022-12-29T08:40:15;43.45;;;21.73;;
46158;SDS011;31888;44.512;26.104;2022-12-29T08:42:39;45.40;;;23.13;;
46158;SDS011;31888;44.512;26.104;2022-12-29T08:45:04;46.03;;;24.05;;
46158;SDS011;31888;44.512;26.104;2022-12-29T08:47:31;44.08;;;23.85;;
46158;SDS011;31888;44.512;26.104;2022-12-29T08:49:57;45.65;;;22.30;;
46158;SDS011;31888;44.512;26.104;2022-12-29T08:52:26;46.33;;;22.02;;
46158;SDS011;31888;44.512;26.104;2022-12-29T08:54:56;46.88;;;22.60;;
46158;SDS011;31888;44.512;26.104;2022-12-29T08:57:21;45.08;;;22.30;;
46158;SDS011;31888;44.512;26.104;2022-12-29T09:00:00;43.20;;;22.53;;
46158;SDS011;31888;44.512;26.104;2022-12-29T09:02:25;41.80;;;22.17;;
46158;SDS011;31888;44.512;26.104;2022-12-29T09:05:00;40.20;;;21.15;;
46158;SDS011;31888;44.512;26.104;2022-12-29T09:07:24;41.45;;;19.27;;
46158;SDS011;31888;44.512;26.104;2022-12-29T09:09:49;46.47;;;19.75;;
46158;SDS011;31888;44.512;26.104;2022-12-29T09:12:13;29.42;;;17.38;;
46158;SDS011;31888;44.512;26.104;2022-12-29T09:14:39;32.38;;;18.13;;
46158;SDS011;31888;44.512;26.104;2022-12-29T09:17:05;30.30;;;17.30;;
46158;SDS011;31888;44.512;26.104;2022-12-29T09:19:47;38.88;;;18.63;;
46158;SDS011;31888;44.512;26.104;2022-12-29T09:22:13;37.55;;;18.92;;
46158;SDS011;31888;44.512;26.104;2022-12-29T09:24:37;33.85;;;17.58;;
46158;SDS011;31888;44.512;26.104;2022-12-29T09:27:02;31.38;;;17.02;;
46158;SDS011;31888;44.512;26.104;2022-12-29T09:29:26;38.20;;;17.92;;
46158;SDS011;31888;44.512;26.104;2022-12-29T09:31:51;28.98;;;16.02;;
46158;SDS011;31888;44.512;26.104;2022-12-29T09:34:16;27.20;;;14.40;;
46158;SDS011;31888;44.512;26.104;2022-12-29T09:36:40;35.15;;;17.10;;
46158;SDS011;31888;44.512;26.104;2022-12-29T09:39:06;31.30;;;14.98;;
46158;SDS011;31888;44.512;26.104;2022-12-29T09:41:33;25.67;;;11.80;;
46158;SDS011;31888;44.512;26.104;2022-12-29T09:44:05;23.83;;;13.43;;
46158;SDS011;31888;44.512;26.104;2022-12-29T09:46:37;34.13;;;14.77;;
46158;SDS011;31888;44.512;26.104;2022-12-29T09:49:07;23.20;;;12.52;;
46158;SDS011;31888;44.512;26.104;2022-12-29T09:51:38;25.05;;;12.32;;
46158;SDS011;31888;44.512;26.104;2022-12-29T09:54:14;28.60;;;12.50;;
46158;SDS011;31888;44.512;26.104;2022-12-29T09:56:48;26.00;;;12.32;;
46158;SDS011;31888;44.512;26.104;2022-12-29T09:59:14;25.83;;;11.88;;
46158;SDS011;31888;44.512;26.104;2022-12-29T10:01:44;24.60;;;11.25;;
46158;SDS011;31888;44.512;26.104;2022-12-29T10:04:15;23.10;;;11.30;;
46158;SDS011;31888;44.512;26.104;2022-12-29T10:06:42;26.60;;;12.63;;
46158;SDS011;31888;44.512;26.104;2022-12-29T10:09:37;22.35;;;11.85;;
46158;SDS011;31888;44.512;26.104;2022-12-29T10:12:16;21.58;;;11.20;;
46158;SDS011;31888;44.512;26.104;2022-12-29T10:14:54;26.17;;;12.48;;
46158;SDS011;31888;44.512;26.104;2022-12-29T10:17:27;24.75;;;11.38;;
46158;SDS011;31888;44.512;26.104;2022-12-29T10:20:21;24.70;;;11.32;;
46158;SDS011;31888;44.512;26.104;2022-12-29T10:22:57;18.58;;;10.25;;
46158;SDS011;31888;44.512;26.104;2022-12-29T10:25:32;18.60;;;10.52;;
46158;SDS011;31888;44.512;26.104;2022-12-29T10:28:02;28.63;;;10.32;;
46158;SDS011;31888;44.512;26.104;2022-12-29T10:30:34;22.48;;;9.98;;
46158;SDS011;31888;44.512;26.104;2022-12-29T10:33:01;21.05;;;10.50;;
46158;SDS011;31888;44.512;26.104;2022-12-29T10:35:29;23.27;;;10.90;;
46158;SDS011;31888;44.512;26.104;2022-12-29T10:37:59;22.52;;;9.50;;
46158;SDS011;31888;44.512;26.104;2022-12-29T10:40:36;31.15;;;9.50;;
46158;SDS011;31888;44.512;26.104;2022-12-29T10:43:11;18.65;;;9.57;;
46158;SDS011;31888;44.512;26.104;2022-12-29T10:45:44;20.55;;;9.52;;
46158;SDS011;31888;44.512;26.104;2022-12-29T10:48:09;18.70;;;10.38;;
46158;SDS011;31888;44.512;26.104;2022-12-29T10:50:41;30.02;;;10.88;;
46158;SDS011;31888;44.512;26.104;2022-12-29T10:53:05;20.67;;;10.18;;
46158;SDS011;31888;44.512;26.104;2022-12-29T10:55:31;20.08;;;10.52;;
46158;SDS011;31888;44.512;26.104;2022-12-29T10:58:00;27.27;;;11.93;;
46158;SDS011;31888;44.512;26.104;2022-12-29T11:00:28;34.97;;;12.75;;
46158;SDS011;31888;44.512;26.104;2022-12-29T11:02:57;24.90;;;11.23;;
46158;SDS011;31888;44.512;26.104;2022-12-29T11:08:10;22.45;;;11.85;;
46158;SDS011;31888;44.512;26.104;2022-12-29T11:10:38;24.85;;;12.95;;
46158;SDS011;31888;44.512;26.104;2022-12-29T11:13:11;25.85;;;12.40;;
46158;SDS011;31888;44.512;26.104;2022-12-29T11:15:38;23.85;;;10.75;;
46158;SDS011;31888;44.512;26.104;2022-12-29T11:18:04;36.42;;;12.65;;
46158;SDS011;31888;44.512;26.104;2022-12-29T11:20:29;24.05;;;10.60;;
46158;SDS011;31888;44.512;26.104;2022-12-29T11:22:56;20.92;;;10.45;;
46158;SDS011;31888;44.512;26.104;2022-12-29T11:25:21;21.75;;;11.10;;
46158;SDS011;31888;44.512;26.104;2022-12-29T11:27:54;20.98;;;10.32;;
46158;SDS011;31888;44.512;26.104;2022-12-29T11:30:23;19.77;;;10.43;;
46158;SDS011;31888;44.512;26.104;2022-12-29T11:32:50;21.20;;;9.70;;
46158;SDS011;31888;44.512;26.104;2022-12-29T11:35:18;20.30;;;9.07;;
46158;SDS011;31888;44.512;26.104;2022-12-29T11:37:54;23.25;;;9.80;;
46158;SDS011;31888;44.512;26.104;2022-12-29T11:40:21;15.55;;;8.25;;
46158;SDS011;31888;44.512;26.104;2022-12-29T11:42:47;19.15;;;9.18;;
46158;SDS011;31888;44.512;26.104;2022-12-29T11:45:15;18.10;;;9.70;;
46158;SDS011;31888;44.512;26.104;2022-12-29T11:47:44;21.50;;;10.68;;
46158;SDS011;31888;44.512;26.104;2022-12-29T11:50:15;18.50;;;11.20;;
46158;SDS011;31888;44.512;26.104;2022-12-29T11:52:42;26.83;;;11.57;;
46158;SDS011;31888;44.512;26.104;2022-12-29T11:55:13;21.58;;;11.45;;
46158;SDS011;31888;44.512;26.104;2022-12-29T11:57:42;23.20;;;11.60;;
46158;SDS011;31888;44.512;26.104;2022-12-29T12:00:14;25.52;;;12.55;;
46158;SDS011;31888;44.512;26.104;2022-12-29T12:02:40;21.13;;;12.10;;
46158;SDS011;31888;44.512;26.104;2022-12-29T12:07:57;19.88;;;11.85;;
46158;SDS011;31888;44.512;26.104;2022-12-29T12:10:28;26.90;;;12.52;;
46158;SDS011;31888;44.512;26.104;2022-12-29T12:13:06;24.63;;;13.40;;
46158;SDS011;31888;44.512;26.104;2022-12-29T12:15:36;27.48;;;12.55;;
46158;SDS011;31888;44.512;26.104;2022-12-29T12:18:14;32.50;;;13.13;;
46158;SDS011;31888;44.512;26.104;2022-12-29T12:20:44;25.55;;;12.52;;
46158;SDS011;31888;44.512;26.104;2022-12-29T12:23:21;20.48;;;11.00;;
46158;SDS011;31888;44.512;26.104;2022-12-29T12:25:54;21.73;;;10.70;;
46158;SDS011;31888;44.512;26.104;2022-12-29T12:28:25;16.70;;;10.52;;
46158;SDS011;31888;44.512;26.104;2022-12-29T12:30:58;22.35;;;11.07;;
46158;SDS011;31888;44.512;26.104;2022-12-29T12:33:27;24.40;;;12.82;;
46158;SDS011;31888;44.512;26.104;2022-12-29T12:36:00;22.38;;;12.05;;
46158;SDS011;31888;44.512;26.104;2022-12-29T12:38:38;24.45;;;11.10;;
46158;SDS011;31888;44.512;26.104;2022-12-29T12:41:14;19.08;;;10.05;;
46158;SDS011;31888;44.512;26.104;2022-12-29T12:43:46;20.77;;;11.48;;
46158;SDS011;31888;44.512;26.104;2022-12-29T12:49:29;20.27;;;9.80;;
46158;SDS011;31888;44.512;26.104;2022-12-29T12:52:17;19.05;;;9.82;;
46158;SDS011;31888;44.512;26.104;2022-12-29T12:54:55;18.27;;;10.18;;
46158;SDS011;31888;44.512;26.104;2022-12-29T12:57:39;23.10;;;9.55;;
46158;SDS011;31888;44.512;26.104;2022-12-29T13:00:13;21.63;;;9.73;;
46158;SDS011;31888;44.512;26.104;2022-12-29T13:02:43;17.95;;;9.48;;
46158;SDS011;31888;44.512;26.104;2022-12-29T13:05:24;20.58;;;9.20;;
46158;SDS011;31888;44.512;26.104;2022-12-29T13:08:18;20.88;;;10.05;;
46158;SDS011;31888;44.512;26.104;2022-12-29T13:11:01;19.20;;;9.50;;
46158;SDS011;31888;44.512;26.104;2022-12-29T13:13:39;22.15;;;9.68;;
46158;SDS011;31888;44.512;26.104;2022-12-29T13:16:17;20.08;;;9.73;;
46158;SDS011;31888;44.512;26.104;2022-12-29T13:18:50;16.13;;;7.57;;
46158;SDS011;31888;44.512;26.104;2022-12-29T13:21:27;24.20;;;9.25;;
46158;SDS011;31888;44.512;26.104;2022-12-29T13:24:00;16.10;;;8.18;;
46158;SDS011;31888;44.512;26.104;2022-12-29T13:26:29;18.98;;;9.30;;
46158;SDS011;31888;44.512;26.104;2022-12-29T13:28:59;21.00;;;9.07;;
46158;SDS011;31888;44.512;26.104;2022-12-29T13:31:36;21.75;;;9.70;;
46158;SDS011;31888;44.512;26.104;2022-12-29T13:34:10;18.67;;;10.20;;
46158;SDS011;31888;44.512;26.104;2022-12-29T13:36:47;22.70;;;11.80;;
46158;SDS011;31888;44.512;26.104;2022-12-29T13:39:16;23.40;;;10.15;;
46158;SDS011;31888;44.512;26.104;2022-12-29T13:41:45;16.98;;;10.23;;
46158;SDS011;31888;44.512;26.104;2022-12-29T13:44:14;20.75;;;9.70;;
46158;SDS011;31888;44.512;26.104;2022-12-29T13:46:42;20.75;;;8.82;;
46158;SDS011;31888;44.512;26.104;2022-12-29T13:49:11;17.92;;;8.52;;
46158;SDS011;31888;44.512;26.104;2022-12-29T13:51:40;18.15;;;9.45;;
46158;SDS011;31888;44.512;26.104;2022-12-29T13:54:14;17.95;;;10.07;;
46158;SDS011;31888;44.512;26.104;2022-12-29T13:56:48;23.25;;;9.13;;
46158;SDS011;31888;44.512;26.104;2022-12-29T13:59:18;16.42;;;8.43;;
46158;SDS011;31888;44.512;26.104;2022-12-29T14:01:49;17.95;;;9.02;;
46158;SDS011;31888;44.512;26.104;2022-12-29T14:04:21;19.33;;;9.43;;
46158;SDS011;31888;44.512;26.104;2022-12-29T14:06:48;20.58;;;9.05;;
46158;SDS011;31888;44.512;26.104;2022-12-29T14:09:30;21.30;;;8.15;;
46158;SDS011;31888;44.512;26.104;2022-12-29T14:12:18;24.52;;;8.80;;
46158;SDS011;31888;44.512;26.104;2022-12-29T14:14:45;21.33;;;9.30;;
46158;SDS011;31888;44.512;26.104;2022-12-29T14:17:10;20.08;;;9.88;;
46158;SDS011;31888;44.512;26.104;2022-12-29T14:19:37;22.25;;;9.95;;
46158;SDS011;31888;44.512;26.104;2022-12-29T14:22:04;21.40;;;10.15;;
46158;SDS011;31888;44.512;26.104;2022-12-29T14:24:50;26.95;;;10.13;;
46158;SDS011;31888;44.512;26.104;2022-12-29T14:27:42;24.25;;;10.15;;
46158;SDS011;31888;44.512;26.104;2022-12-29T14:33:11;28.52;;;11.82;;
46158;SDS011;31888;44.512;26.104;2022-12-29T14:35:39;33.38;;;12.55;;
46158;SDS011;31888;44.512;26.104;2022-12-29T14:38:15;38.05;;;13.85;;
46158;SDS011;31888;44.512;26.104;2022-12-29T14:40:44;30.42;;;13.15;;
46158;SDS011;31888;44.512;26.104;2022-12-29T14:43:11;32.42;;;13.68;;
46158;SDS011;31888;44.512;26.104;2022-12-29T14:45:41;31.70;;;13.80;;